createdAt,value
2019-03-10T11:50:44.306Z,77.50
2019-03-10T11:51:44.276Z,75.98
2019-03-10T11:52:44.285Z,76.99
2019-03-10T11:53:44.253Z,76.68
2019-03-10T11:54:44.244Z,76.99
2019-03-10T11:55:44.228Z,76.18
2019-03-10T11:56:44.218Z,75.81
2019-03-10T11:57:44.205Z,75.60
2019-03-10T11:58:44.215Z,75.60
2019-03-10T11:59:44.185Z,73.57
2019-03-10T12:00:44.171Z,73.57
2019-03-10T12:01:44.160Z,73.02
2019-03-10T12:02:44.173Z,71.91
2019-03-10T12:03:44.137Z,71.09
2019-03-10T12:04:44.125Z,70.86
2019-03-10T12:05:44.112Z,68.46
2019-03-10T12:06:44.098Z,66.41
2019-03-10T12:07:44.087Z,68.46
2019-03-10T12:08:44.100Z,68.05
2019-03-10T12:09:44.068Z,69.43
2019-03-10T12:10:44.054Z,70.68
2019-03-10T12:11:44.043Z,70.89
2019-03-10T12:12:44.031Z,71.73
2019-03-10T12:13:44.056Z,73.26
2019-03-10T12:14:44.005Z,71.36
2019-03-10T12:15:44.008Z,71.50
2019-03-10T12:16:43.987Z,73.06
2019-03-10T12:17:43.970Z,73.88
2019-03-10T12:18:43.959Z,75.13
2019-03-10T12:19:43.965Z,76.87
2019-03-10T12:20:43.937Z,77.21
2019-03-10T12:21:43.923Z,78.47
2019-03-10T12:22:43.921Z,76.53
2019-03-10T12:23:43.982Z,76.53
2019-03-10T12:24:43.892Z,76.22
2019-03-10T12:25:43.877Z,77.65
2019-03-10T12:26:43.868Z,76.63
2019-03-10T12:27:43.857Z,75.88
2019-03-10T12:28:43.890Z,75.57
2019-03-10T12:29:43.833Z,75.16
2019-03-10T12:30:43.822Z,73.64
2019-03-10T12:31:43.806Z,74.86
2019-03-10T12:32:43.796Z,73.74
2019-03-10T12:33:43.783Z,73.64
2019-03-10T12:34:43.793Z,73.60
2019-03-10T12:35:43.760Z,74.42
2019-03-10T12:36:43.801Z,73.64
2019-03-10T12:37:43.735Z,74.45
2019-03-10T12:38:43.726Z,76.19
2019-03-10T12:39:43.743Z,76.19
2019-03-10T12:40:43.701Z,77.11
2019-03-10T12:41:43.702Z,77.65
2019-03-10T12:42:43.687Z,78.30
2019-03-10T12:43:43.665Z,79.22
2019-03-10T12:44:43.654Z,79.83
2019-03-10T12:45:43.662Z,79.46
2019-03-10T12:46:43.631Z,79.57
2019-03-10T12:47:43.619Z,78.81
2019-03-10T12:48:43.609Z,79.63
2019-03-10T12:49:43.613Z,78.85
2019-03-10T12:50:43.607Z,79.97
2019-03-10T12:51:43.574Z,80.55
2019-03-10T12:52:43.561Z,79.22
2019-03-10T12:53:43.547Z,79.57
2019-03-10T12:54:43.536Z,78.95
2019-03-10T12:55:43.545Z,79.16
2019-03-10T12:56:43.534Z,80.07
2019-03-10T12:57:43.501Z,78.54
2019-03-10T12:58:43.488Z,79.97
2019-03-10T12:59:43.477Z,79.77
2019-03-10T13:00:43.463Z,78.95
2019-03-10T13:01:43.472Z,79.36
2019-03-10T13:02:43.442Z,80.48
2019-03-10T13:03:43.477Z,78.13
2019-03-10T13:04:43.418Z,79.66
2019-03-10T13:05:43.405Z,80.07
2019-03-10T13:06:43.409Z,80.79
2019-03-10T13:07:43.382Z,80.65
2019-03-10T13:08:43.370Z,81.71
2019-03-10T13:09:43.359Z,83.44
2019-03-10T13:10:43.345Z,84.26
2019-03-10T13:11:43.354Z,85.57
2019-03-10T13:12:43.322Z,87.35
2019-03-10T13:13:43.311Z,87.65
2019-03-10T13:14:43.298Z,88.51
2019-03-10T13:15:43.287Z,88.92
2019-03-10T13:16:43.343Z,89.23
2019-03-10T13:17:43.269Z,90.86
2019-03-10T13:18:43.252Z,90.86
2019-03-10T13:19:43.243Z,89.78
2019-03-10T13:20:43.229Z,91.11
2019-03-10T13:21:43.329Z,91.56
2019-03-10T13:22:43.221Z,93.51
2019-03-10T13:23:43.195Z,94.17
2019-03-10T13:24:43.179Z,94.37
2019-03-10T13:25:43.168Z,94.48
2019-03-10T13:26:43.166Z,94.07
2019-03-10T13:27:43.171Z,94.27
2019-03-10T13:28:43.139Z,94.27
2019-03-10T13:29:43.121Z,94.07
2019-03-10T13:30:43.112Z,93.86
2019-03-10T13:31:43.100Z,93.55
2019-03-10T13:32:44.415Z,92.38
2019-03-10T13:33:43.096Z,92.10
2019-03-10T13:34:43.064Z,91.20
2019-03-10T13:35:43.054Z,88.26
2019-03-10T13:36:43.048Z,86.41
2019-03-10T13:37:43.030Z,87.47
2019-03-10T13:38:43.040Z,87.14
2019-03-10T13:39:43.006Z,88.00
2019-03-10T13:40:42.994Z,87.18
2019-03-10T13:41:42.987Z,88.10
2019-03-10T13:42:42.971Z,88.76
2019-03-10T13:43:42.960Z,89.47
2019-03-10T13:44:42.963Z,89.78
2019-03-10T13:45:42.936Z,89.31
2019-03-10T13:46:44.017Z,90.34
2019-03-10T13:47:42.909Z,90.19
2019-03-10T13:48:42.901Z,91.16
2019-03-10T13:49:42.908Z,91.09
2019-03-10T13:50:42.877Z,91.40
2019-03-10T13:51:42.870Z,92.83
2019-03-10T13:52:42.870Z,93.76
2019-03-10T13:53:42.841Z,94.17
2019-03-10T13:54:42.848Z,93.15
2019-03-10T13:55:42.818Z,93.70
2019-03-10T13:56:42.805Z,94.21
2019-03-10T13:57:42.794Z,95.34
2019-03-10T13:58:42.784Z,94.93
2019-03-10T13:59:42.795Z,95.44
2019-03-10T14:00:42.759Z,94.98
2019-03-10T14:01:42.749Z,94.83
2019-03-10T14:02:42.736Z,93.70
2019-03-10T14:03:42.727Z,91.03
2019-03-10T14:04:42.714Z,86.07
2019-03-10T14:05:42.733Z,83.82
2019-03-10T14:06:42.691Z,83.92
2019-03-10T14:07:42.682Z,81.82
2019-03-10T14:08:42.668Z,80.56
2019-03-10T14:09:42.654Z,80.04
2019-03-10T14:10:42.644Z,76.64
2019-03-10T14:11:42.653Z,76.50
2019-03-10T14:12:42.623Z,76.43
2019-03-10T14:13:42.609Z,75.65
2019-03-10T14:14:42.599Z,77.84
2019-03-10T14:15:44.413Z,75.18
2019-03-10T14:16:42.593Z,76.10
2019-03-10T14:17:42.562Z,75.79
2019-03-10T14:18:42.551Z,76.14
2019-03-10T14:19:42.540Z,76.65
2019-03-10T14:20:42.527Z,75.99
2019-03-10T14:21:42.536Z,72.52
2019-03-10T14:22:42.559Z,70.84
2019-03-10T14:23:42.491Z,71.12
2019-03-10T14:24:42.485Z,71.49
2019-03-10T14:25:42.468Z,73.64
2019-03-10T14:26:42.463Z,73.78
2019-03-10T14:27:42.463Z,73.10
2019-03-10T14:28:45.384Z,72.17
2019-03-10T14:29:42.426Z,70.87
2019-03-10T14:30:42.412Z,70.81
2019-03-10T14:31:42.401Z,70.26
2019-03-10T14:32:42.411Z,71.42
2019-03-10T14:33:42.375Z,70.40
2019-03-10T14:34:42.366Z,70.84
2019-03-10T14:35:42.412Z,71.73
2019-03-10T14:36:42.342Z,70.43
2019-03-10T14:37:42.341Z,68.32
2019-03-10T14:38:42.338Z,70.70
2019-03-10T14:39:42.315Z,71.45
2019-03-10T14:40:42.297Z,71.56
2019-03-10T14:41:42.284Z,71.76
2019-03-10T14:42:42.273Z,70.32
2019-03-10T14:43:42.286Z,70.56
2019-03-10T14:44:42.253Z,70.46
2019-03-10T14:45:42.237Z,71.39
2019-03-10T14:46:42.228Z,71.80
2019-03-10T14:47:42.214Z,71.62
2019-03-10T14:48:42.208Z,72.55
2019-03-10T14:49:42.209Z,71.93
2019-03-10T14:50:42.179Z,71.52
2019-03-10T14:51:42.166Z,70.50
2019-03-10T14:52:42.157Z,70.70
2019-03-10T14:53:42.148Z,71.55
2019-03-10T14:54:42.156Z,71.66
2019-03-10T14:55:42.122Z,71.97
2019-03-10T14:56:42.109Z,71.76
2019-03-10T14:57:42.097Z,72.00
2019-03-10T14:58:42.087Z,71.55
2019-03-10T14:59:42.097Z,71.08
2019-03-10T15:00:42.059Z,72.00
2019-03-10T15:01:42.054Z,72.92
2019-03-10T15:02:42.037Z,72.61
2019-03-10T15:03:42.026Z,71.69
2019-03-10T15:04:42.037Z,71.89
2019-03-10T15:05:42.007Z,72.00
2019-03-10T15:06:41.994Z,70.66
2019-03-10T15:07:41.979Z,71.79
2019-03-10T15:08:41.967Z,71.93
2019-03-10T15:09:41.973Z,71.51
2019-03-10T15:10:41.942Z,70.56
2019-03-10T15:11:41.931Z,71.11
2019-03-10T15:12:41.919Z,71.00
2019-03-10T15:13:41.907Z,71.41
2019-03-10T15:14:41.915Z,71.08
2019-03-10T15:15:41.881Z,71.21
2019-03-10T15:16:41.875Z,71.11
2019-03-10T15:17:41.859Z,71.00
2019-03-10T15:18:41.846Z,71.41
2019-03-10T15:19:41.853Z,70.79
2019-03-10T15:20:41.822Z,72.13
2019-03-10T15:21:41.816Z,72.24
2019-03-10T15:22:41.798Z,71.79
2019-03-10T15:23:41.786Z,72.17
2019-03-10T15:24:41.791Z,72.89
2019-03-10T15:25:41.760Z,72.55
2019-03-10T15:26:45.762Z,73.36
2019-03-10T15:27:41.740Z,73.98
2019-03-10T15:28:41.723Z,74.02
2019-03-10T15:29:41.737Z,74.33
2019-03-10T15:30:41.701Z,74.02
2019-03-10T15:31:41.692Z,74.22
2019-03-10T15:32:41.680Z,74.12
2019-03-10T15:33:41.665Z,73.02
2019-03-10T15:34:41.655Z,73.81
2019-03-10T15:35:41.659Z,74.12
2019-03-10T15:36:41.645Z,72.20
2019-03-10T15:37:41.617Z,72.17
2019-03-10T15:38:41.605Z,72.27
2019-03-10T15:39:41.595Z,72.17
2019-03-10T15:40:41.604Z,73.16
2019-03-10T15:41:41.569Z,73.09
2019-03-10T15:42:41.557Z,72.58
2019-03-10T15:43:41.545Z,72.89
2019-03-10T15:44:41.534Z,72.89
2019-03-10T15:45:41.523Z,72.58
2019-03-10T15:46:41.526Z,72.68
2019-03-10T15:47:41.498Z,72.68
2019-03-10T15:48:41.511Z,72.89
2019-03-10T15:49:41.474Z,73.23
2019-03-10T15:50:41.461Z,73.19
2019-03-10T15:51:41.466Z,73.71
2019-03-10T15:52:41.438Z,73.02
2019-03-10T15:53:41.423Z,73.44
2019-03-10T15:54:41.412Z,74.46
2019-03-10T15:55:41.398Z,74.05
2019-03-10T15:56:41.407Z,73.91
2019-03-10T15:57:49.545Z,74.36
2019-03-10T15:58:42.366Z,73.44
2019-03-10T15:59:41.356Z,73.02
2019-03-10T16:00:41.352Z,74.05
2019-03-10T16:01:41.351Z,73.64
2019-03-10T16:02:41.317Z,73.06
2019-03-10T16:03:41.305Z,73.54
2019-03-10T16:04:41.292Z,74.05
2019-03-10T16:05:41.286Z,74.19
2019-03-10T16:06:41.268Z,74.19
2019-03-10T16:07:41.276Z,74.87
2019-03-10T16:08:41.246Z,74.05
2019-03-10T16:09:41.233Z,74.29
2019-03-10T16:10:41.224Z,75.01
2019-03-10T16:11:41.209Z,75.12
2019-03-10T16:12:41.214Z,74.40
2019-03-10T16:13:41.186Z,75.70
2019-03-10T16:14:41.173Z,75.42
2019-03-10T16:15:41.162Z,75.84
2019-03-10T16:16:41.148Z,75.84
2019-03-10T16:17:41.180Z,76.25
2019-03-10T16:18:41.128Z,76.56
2019-03-10T16:19:41.112Z,75.63
2019-03-10T16:20:41.102Z,74.80
2019-03-10T16:21:41.088Z,74.12
2019-03-10T16:22:41.077Z,74.84
2019-03-10T16:23:41.084Z,75.25
2019-03-10T16:24:41.056Z,75.60
2019-03-10T16:25:41.044Z,75.90
2019-03-10T16:26:41.031Z,75.49
2019-03-10T16:27:41.020Z,75.67
2019-03-10T16:28:41.028Z,76.01
2019-03-10T16:29:40.995Z,76.42
2019-03-10T16:30:40.980Z,76.83
2019-03-10T16:31:40.967Z,77.38
2019-03-10T16:32:40.960Z,77.69
2019-03-10T16:33:40.985Z,78.41
2019-03-10T16:34:40.933Z,78.66
2019-03-10T16:35:40.924Z,79.48
2019-03-10T16:36:40.909Z,78.97
2019-03-10T16:37:40.898Z,79.41
2019-03-10T16:38:40.884Z,79.52
2019-03-10T16:39:40.894Z,80.44
2019-03-10T16:40:40.864Z,81.07
2019-03-10T16:41:40.850Z,82.38
2019-03-10T16:42:40.842Z,82.34
2019-03-10T16:43:40.824Z,82.48
2019-03-10T16:44:40.840Z,82.38
2019-03-10T16:45:40.805Z,82.31
2019-03-10T16:46:40.792Z,82.52
2019-03-10T16:47:40.784Z,82.83
2019-03-10T16:48:40.767Z,83.80
2019-03-10T16:49:40.757Z,83.90
2019-03-10T16:50:40.763Z,84.45
2019-03-10T16:51:40.735Z,83.39
2019-03-10T16:52:40.731Z,83.01
2019-03-10T16:53:41.759Z,83.53
2019-03-10T16:54:40.707Z,83.42
2019-03-10T16:55:40.706Z,83.94
2019-03-10T16:56:40.677Z,84.05
2019-03-10T16:57:40.667Z,84.56
2019-03-10T16:58:40.649Z,83.73
2019-03-10T16:59:40.641Z,83.63
2019-03-10T17:00:40.646Z,83.53
2019-03-10T17:01:40.618Z,83.15
2019-03-10T17:02:43.017Z,83.73
2019-03-10T17:03:40.593Z,83.53
2019-03-10T17:04:40.582Z,83.22
2019-03-10T17:05:40.590Z,83.84
2019-03-10T17:06:40.559Z,83.01
2019-03-10T17:07:40.551Z,83.53
2019-03-10T17:08:40.537Z,83.42
2019-03-10T17:09:40.523Z,84.15
2019-03-10T17:10:40.533Z,83.53
2019-03-10T17:11:40.502Z,84.45
2019-03-10T17:12:40.491Z,84.77
2019-03-10T17:13:40.479Z,84.45
2019-03-10T17:14:40.466Z,84.36
2019-03-10T17:15:40.493Z,84.45
2019-03-10T17:16:40.444Z,84.97
2019-03-10T17:17:40.440Z,84.56
2019-03-10T17:18:40.427Z,84.56
2019-03-10T17:19:40.428Z,84.56
2019-03-10T17:20:40.400Z,84.45
2019-03-10T17:21:42.093Z,85.28
2019-03-10T17:22:40.378Z,85.84
2019-03-10T17:23:40.366Z,85.49
2019-03-10T17:24:40.358Z,86.25
2019-03-10T17:25:40.349Z,86.32
2019-03-10T17:26:40.354Z,86.46
2019-03-10T17:27:40.322Z,87.29
2019-03-10T17:28:40.307Z,86.67
2019-03-10T17:29:40.299Z,87.60
2019-03-10T17:30:40.287Z,87.70
2019-03-10T17:31:40.274Z,87.60
2019-03-10T17:32:40.279Z,87.49
2019-03-10T17:33:40.252Z,86.91
2019-03-10T17:34:40.239Z,87.95
2019-03-10T17:35:40.229Z,87.64
2019-03-10T17:36:40.227Z,87.74
2019-03-10T17:37:40.225Z,87.95
2019-03-10T17:38:40.193Z,87.95
2019-03-10T17:39:40.182Z,88.57
2019-03-10T17:40:40.171Z,88.67
2019-03-10T17:41:40.163Z,88.67
2019-03-10T17:42:40.188Z,88.78
2019-03-10T17:43:40.139Z,89.71
2019-03-10T17:44:41.455Z,89.29
2019-03-10T17:45:40.117Z,90.16
2019-03-10T17:46:40.102Z,89.29
2019-03-10T17:47:41.790Z,89.65
2019-03-10T17:48:40.105Z,89.92
2019-03-10T17:49:40.075Z,90.74
2019-03-10T17:50:40.075Z,90.16
2019-03-10T17:51:40.047Z,90.68
2019-03-10T17:52:40.036Z,91.41
2019-03-10T17:53:41.917Z,91.72
2019-03-10T17:54:40.013Z,91.82
2019-03-10T17:55:40.000Z,91.61
2019-03-10T17:56:39.987Z,90.78
2019-03-10T17:57:39.975Z,90.68
2019-03-10T17:58:40.028Z,91.41
2019-03-10T17:59:39.955Z,91.09
2019-03-10T18:00:39.942Z,91.41
2019-03-10T18:01:39.930Z,91.76
2019-03-10T18:02:39.919Z,92.13
2019-03-10T18:03:39.930Z,91.82
2019-03-10T18:04:39.896Z,92.03
2019-03-10T18:05:39.885Z,91.86
2019-03-10T18:06:39.874Z,91.93
2019-03-10T18:07:39.871Z,91.51
2019-03-10T18:08:39.849Z,92.03
2019-03-10T18:09:39.857Z,92.13
2019-03-10T18:10:39.827Z,92.03
2019-03-10T18:11:39.816Z,93.06
2019-03-10T18:12:39.803Z,93.06
2019-03-10T18:13:39.795Z,93.37
2019-03-10T18:14:39.803Z,93.58
2019-03-10T18:15:39.776Z,93.89
2019-03-10T18:16:39.765Z,93.68
2019-03-10T18:17:39.748Z,93.37
2019-03-10T18:18:39.748Z,94.04
2019-03-10T18:19:39.775Z,94.41
2019-03-10T18:20:39.712Z,94.20
2019-03-10T18:21:39.703Z,94.41
2019-03-10T18:22:41.485Z,95.03
2019-03-10T18:23:39.679Z,95.34
2019-03-10T18:24:39.669Z,95.44
2019-03-10T18:25:39.675Z,97.57
2019-03-10T18:26:39.646Z,95.77
2019-03-10T18:27:39.632Z,95.36
2019-03-10T18:28:39.628Z,95.50
2019-03-10T18:29:39.615Z,95.19
2019-03-10T18:30:39.619Z,95.65
2019-03-10T18:31:39.592Z,95.24
2019-03-10T18:32:39.576Z,95.59
2019-03-10T18:33:39.567Z,95.54
2019-03-10T18:34:39.555Z,96.01
2019-03-10T18:35:39.562Z,96.52
2019-03-10T18:36:39.532Z,96.01
2019-03-10T18:37:39.524Z,96.01
2019-03-10T18:38:39.511Z,96.42
2019-03-10T18:39:39.502Z,96.73
2019-03-10T18:40:39.518Z,96.62
2019-03-10T18:41:39.477Z,97.09
2019-03-10T18:42:39.465Z,97.14
2019-03-10T18:43:39.452Z,97.66
2019-03-10T18:44:39.442Z,97.91
2019-03-10T18:45:39.433Z,97.45
2019-03-10T18:46:39.439Z,98.28
2019-03-10T18:47:39.409Z,98.08
2019-03-10T18:48:39.397Z,97.97
2019-03-10T18:49:39.386Z,97.77
2019-03-10T18:50:39.374Z,98.39
2019-03-10T18:51:39.390Z,97.66
2019-03-10T18:52:39.352Z,98.39
2019-03-10T18:53:39.342Z,98.39
2019-03-10T18:54:39.327Z,97.77
2019-03-10T18:55:39.319Z,98.74
2019-03-10T18:56:39.307Z,98.08
2019-03-10T18:57:39.315Z,97.97
2019-03-10T18:58:39.282Z,98.70
2019-03-10T18:59:39.271Z,98.60
2019-03-10T19:00:39.265Z,97.29
2019-03-10T19:01:39.252Z,98.49
2019-03-10T19:02:39.253Z,98.18
2019-03-10T19:03:39.224Z,97.35
2019-03-10T19:04:39.216Z,96.83
2019-03-10T19:05:39.207Z,96.83
2019-03-10T19:06:39.191Z,96.88
2019-03-10T19:07:39.198Z,96.94
2019-03-10T19:08:39.165Z,96.62
2019-03-10T19:09:39.155Z,96.62
2019-03-10T19:10:39.142Z,96.42
2019-03-10T19:11:39.131Z,94.97
2019-03-10T19:12:39.142Z,93.73
2019-03-10T19:13:39.108Z,92.63
2019-03-10T19:14:39.097Z,91.97
2019-03-10T19:15:39.084Z,92.07
2019-03-10T19:16:39.073Z,92.59
2019-03-10T19:17:39.062Z,92.59
2019-03-10T19:18:39.066Z,92.49
2019-03-10T19:19:39.038Z,91.86
2019-03-10T19:20:39.024Z,91.70
2019-03-10T19:21:39.014Z,92.11
2019-03-10T19:22:39.002Z,91.80
2019-03-10T19:23:39.014Z,91.39
2019-03-10T19:24:38.981Z,91.80
2019-03-10T19:25:38.968Z,92.01
2019-03-10T19:26:38.953Z,91.12
2019-03-10T19:27:38.942Z,91.02
2019-03-10T19:28:38.930Z,90.39
2019-03-10T19:29:38.937Z,91.53
2019-03-10T19:30:38.910Z,91.12
2019-03-10T19:31:38.896Z,90.91
2019-03-10T19:32:38.880Z,90.81
2019-03-10T19:33:38.870Z,91.37
2019-03-10T19:34:38.879Z,91.78
2019-03-10T19:35:38.847Z,91.16
2019-03-10T19:36:38.836Z,91.58
2019-03-10T19:37:38.822Z,91.89
2019-03-10T19:38:38.817Z,91.99
2019-03-10T19:39:38.817Z,92.82
2019-03-10T19:40:38.785Z,92.16
2019-03-10T19:41:38.779Z,90.85
2019-03-10T19:42:38.764Z,90.12
2019-03-10T19:43:38.751Z,90.19
2019-03-10T19:44:38.758Z,90.02
2019-03-10T19:45:38.728Z,90.75
2019-03-10T19:46:38.715Z,90.33
2019-03-10T19:47:38.706Z,90.75
2019-03-10T19:48:38.692Z,90.33
2019-03-10T19:49:38.699Z,89.71
2019-03-10T19:50:38.711Z,89.81
2019-03-10T19:51:38.655Z,90.33
2019-03-10T19:52:38.646Z,90.48
2019-03-10T19:53:38.632Z,90.48
2019-03-10T19:54:38.646Z,90.79
2019-03-10T19:55:38.607Z,90.58
2019-03-10T19:56:38.599Z,90.48
2019-03-10T19:57:38.587Z,91.24
2019-03-10T19:58:38.574Z,90.93
2019-03-10T19:59:38.564Z,90.62
2019-03-10T20:00:38.568Z,89.89
2019-03-10T20:01:38.536Z,89.58
2019-03-10T20:02:38.527Z,89.75
2019-03-10T20:03:38.512Z,89.75
2019-03-10T20:04:38.500Z,90.52
2019-03-10T20:05:38.512Z,89.79
2019-03-10T20:06:38.480Z,89.69
2019-03-10T20:07:38.467Z,90.52
2019-03-10T20:08:38.455Z,90.62
2019-03-10T20:09:38.441Z,90.00
2019-03-10T20:10:38.455Z,89.65
2019-03-10T20:11:38.419Z,89.96
2019-03-10T20:12:38.408Z,90.58
2019-03-10T20:13:38.393Z,90.27
2019-03-10T20:14:38.384Z,90.02
2019-03-10T20:15:38.375Z,89.92
2019-03-10T20:16:38.376Z,90.89
2019-03-10T20:17:38.375Z,90.44
2019-03-10T20:18:38.415Z,90.58
2019-03-10T20:19:38.326Z,90.75
2019-03-10T20:20:38.313Z,90.85
2019-03-10T20:21:38.320Z,90.58
2019-03-10T20:22:38.288Z,90.79
2019-03-10T20:23:38.275Z,91.99
2019-03-10T20:24:38.263Z,92.51
2019-03-10T20:25:38.255Z,92.82
2019-03-10T20:26:38.260Z,92.10
2019-03-10T20:27:38.228Z,92.10
2019-03-10T20:28:40.995Z,91.47
2019-03-10T20:29:38.206Z,91.89
2019-03-10T20:30:38.194Z,92.10
2019-03-10T20:31:38.205Z,91.58
2019-03-10T20:32:38.171Z,91.58
2019-03-10T20:33:38.181Z,92.41
2019-03-10T20:34:38.146Z,93.02
2019-03-10T20:35:38.132Z,92.10
2019-03-10T20:36:38.125Z,91.99
2019-03-10T20:37:38.129Z,91.27
2019-03-10T20:38:38.100Z,91.27
2019-03-10T20:39:38.094Z,90.91
2019-03-10T20:40:38.075Z,90.85
2019-03-10T20:41:38.066Z,91.06
2019-03-10T20:42:38.071Z,91.27
2019-03-10T20:43:38.042Z,91.78
2019-03-10T20:44:38.030Z,92.24
2019-03-10T20:45:38.021Z,93.44
2019-03-10T20:46:38.005Z,90.85
2019-03-10T20:47:38.010Z,90.58
2019-03-10T20:48:37.984Z,91.00
2019-03-10T20:49:37.970Z,91.97
2019-03-10T20:50:37.957Z,91.86
2019-03-10T20:51:37.946Z,91.97
2019-03-10T20:52:37.976Z,92.49
2019-03-10T20:53:37.925Z,92.94
2019-03-10T20:54:37.910Z,92.94
2019-03-10T20:55:37.897Z,93.37
2019-03-10T20:56:37.890Z,93.20
2019-03-10T20:57:37.875Z,92.57
2019-03-10T20:58:37.887Z,92.99
2019-03-10T20:59:37.853Z,93.82
2019-03-10T21:00:37.844Z,93.20
2019-03-10T21:01:37.863Z,93.51
2019-03-10T21:02:37.816Z,94.03
2019-03-10T21:03:37.842Z,93.41
2019-03-10T21:04:37.793Z,93.10
2019-03-10T21:05:37.791Z,93.10
2019-03-10T21:06:37.768Z,94.24
2019-03-10T21:07:37.760Z,92.61
2019-03-10T21:08:37.769Z,93.35
2019-03-10T21:09:37.742Z,92.82
2019-03-10T21:10:37.724Z,92.82
2019-03-10T21:11:37.719Z,92.93
2019-03-10T21:12:41.861Z,92.61
2019-03-10T21:13:38.714Z,92.61
2019-03-10T21:14:37.680Z,92.82
2019-03-10T21:15:37.672Z,93.55
2019-03-10T21:16:37.654Z,94.22
2019-03-10T21:17:37.643Z,93.60
2019-03-10T21:18:37.634Z,93.80
2019-03-10T21:19:37.640Z,92.86
2019-03-10T21:20:37.607Z,93.97
2019-03-10T21:21:37.596Z,93.07
2019-03-10T21:22:37.587Z,93.29
2019-03-10T21:23:37.572Z,93.80
2019-03-10T21:24:37.583Z,93.49
2019-03-10T21:25:37.557Z,94.12
2019-03-10T21:26:37.537Z,94.01
2019-03-10T21:27:38.470Z,93.60
2019-03-10T21:28:37.541Z,93.91
2019-03-10T21:29:37.510Z,93.80
2019-03-10T21:30:37.512Z,93.23
2019-03-10T21:31:37.479Z,93.33
2019-03-10T21:32:37.469Z,93.64
2019-03-10T21:33:37.457Z,93.33
2019-03-10T21:34:37.447Z,93.95
2019-03-10T21:35:37.452Z,93.54
2019-03-10T21:36:37.425Z,93.74
2019-03-10T21:37:37.412Z,93.85
2019-03-10T21:38:37.400Z,94.26
2019-03-10T21:39:37.388Z,93.54
2019-03-10T21:40:37.398Z,93.80
2019-03-10T21:41:37.367Z,94.06
2019-03-10T21:42:37.354Z,94.16
2019-03-10T21:43:37.382Z,93.43
2019-03-10T21:44:37.332Z,93.12
2019-03-10T21:45:37.319Z,92.91
2019-03-10T21:46:37.329Z,93.54
2019-03-10T21:47:37.325Z,93.33
2019-03-10T21:48:37.287Z,93.48
2019-03-10T21:49:37.273Z,93.48
2019-03-10T21:50:37.264Z,92.85
2019-03-10T21:51:37.271Z,93.48
2019-03-10T21:52:37.240Z,92.80
2019-03-10T21:53:37.229Z,92.95
2019-03-10T21:54:37.218Z,93.12
2019-03-10T21:55:37.203Z,93.23
2019-03-10T21:56:37.219Z,93.74
2019-03-10T21:57:37.233Z,93.05
2019-03-10T21:58:37.173Z,92.95
2019-03-10T21:59:37.163Z,93.48
2019-03-10T22:00:37.151Z,93.54
2019-03-10T22:01:37.139Z,93.27
2019-03-10T22:02:37.144Z,93.89
2019-03-10T22:03:37.115Z,93.89
2019-03-10T22:04:37.103Z,94.10
2019-03-10T22:05:37.092Z,93.64
2019-03-10T22:06:37.113Z,93.01
2019-03-10T22:07:37.094Z,94.06
2019-03-10T22:08:37.059Z,94.47
2019-03-10T22:09:37.045Z,93.74
2019-03-10T22:10:37.032Z,94.31
2019-03-10T22:11:37.029Z,93.95
2019-03-10T22:12:37.015Z,93.58
2019-03-10T22:13:46.328Z,93.33
2019-03-10T22:14:37.988Z,93.12
2019-03-10T22:15:41.652Z,94.06
2019-03-10T22:16:36.968Z,94.31
2019-03-10T22:17:36.954Z,93.99
2019-03-10T22:18:36.959Z,93.99
2019-03-10T22:19:36.932Z,94.10
2019-03-10T22:20:36.918Z,94.41
2019-03-10T22:21:36.993Z,93.05
2019-03-10T22:22:47.889Z,93.01
2019-03-10T22:23:37.906Z,94.37
2019-03-10T22:24:36.875Z,93.01
2019-03-10T22:25:36.874Z,93.01
2019-03-10T22:26:36.846Z,93.23
2019-03-10T22:27:36.837Z,93.01
2019-03-10T22:28:36.886Z,93.39
2019-03-10T22:29:36.812Z,93.07
2019-03-10T22:30:36.825Z,92.03
2019-03-10T22:31:36.792Z,92.24
2019-03-10T22:32:36.791Z,92.35
2019-03-10T22:33:36.766Z,90.79
2019-03-10T22:34:36.779Z,91.20
2019-03-10T22:35:36.745Z,92.03
2019-03-10T22:36:36.731Z,92.20
2019-03-10T22:37:36.721Z,91.47
2019-03-10T22:38:36.711Z,91.06
2019-03-10T22:39:36.738Z,90.64
2019-03-10T22:40:36.686Z,90.85
2019-03-10T22:41:36.676Z,91.06
2019-03-10T22:42:36.661Z,91.16
2019-03-10T22:43:36.653Z,90.95
2019-03-10T22:44:36.638Z,91.68
2019-03-10T22:45:36.644Z,91.00
2019-03-10T22:46:36.616Z,91.16
2019-03-10T22:47:36.605Z,91.16
2019-03-10T22:48:36.592Z,91.99
2019-03-10T22:49:36.580Z,92.10
2019-03-10T22:50:36.585Z,91.74
2019-03-10T22:51:36.558Z,91.68
2019-03-10T22:52:36.548Z,92.36
2019-03-10T22:53:36.532Z,91.99
2019-03-10T22:54:36.526Z,91.99
2019-03-10T22:55:36.530Z,92.10
2019-03-10T22:56:36.497Z,91.95
2019-03-10T22:57:36.485Z,91.99
2019-03-10T22:58:36.473Z,92.26
2019-03-10T22:59:36.463Z,92.20
2019-03-10T23:00:36.472Z,92.10
2019-03-10T23:01:36.439Z,91.99
2019-03-10T23:02:36.429Z,91.89
2019-03-10T23:03:36.418Z,92.20
2019-03-10T23:04:36.403Z,92.30
2019-03-10T23:05:36.413Z,92.20
2019-03-10T23:06:36.381Z,92.26
2019-03-10T23:07:36.371Z,92.41
2019-03-10T23:08:36.360Z,92.16
2019-03-10T23:09:36.345Z,91.53
2019-03-10T23:10:36.357Z,91.12
2019-03-10T23:11:36.325Z,91.22
2019-03-10T23:12:36.311Z,90.81
2019-03-10T23:13:36.303Z,90.70
2019-03-10T23:14:36.290Z,90.70
2019-03-10T23:15:36.294Z,90.81
2019-03-10T23:16:36.285Z,90.77
2019-03-10T23:17:36.255Z,90.45
2019-03-10T23:18:36.246Z,90.77
2019-03-10T23:19:36.229Z,90.56
2019-03-10T23:20:36.238Z,90.14
2019-03-10T23:21:36.208Z,90.45
2019-03-10T23:22:36.195Z,89.83
2019-03-10T23:23:36.182Z,89.83
2019-03-10T23:24:36.173Z,89.27
2019-03-10T23:25:36.201Z,88.85
2019-03-10T23:26:36.146Z,89.06
2019-03-10T23:27:36.136Z,89.58
2019-03-10T23:28:36.126Z,89.37
2019-03-10T23:29:36.110Z,89.58
2019-03-10T23:30:36.102Z,89.37
2019-03-10T23:31:36.107Z,89.17
2019-03-10T23:32:36.078Z,89.06
2019-03-10T23:33:36.065Z,88.75
2019-03-10T23:34:36.055Z,88.75
2019-03-10T23:35:36.043Z,89.03
2019-03-10T23:36:36.072Z,88.13
2019-03-10T23:37:36.017Z,87.95
2019-03-10T23:38:36.013Z,87.88
2019-03-10T23:39:35.996Z,87.88
2019-03-10T23:40:35.982Z,87.78
2019-03-10T23:41:35.974Z,87.82
2019-03-10T23:42:35.980Z,87.88
2019-03-10T23:43:35.949Z,87.99
2019-03-10T23:44:35.935Z,87.95
2019-03-10T23:45:35.926Z,88.36
2019-03-10T23:46:35.912Z,87.88
2019-03-10T23:47:35.924Z,88.09
2019-03-10T23:48:35.891Z,87.84
2019-03-10T23:49:35.877Z,87.84
2019-03-10T23:50:35.868Z,88.20
2019-03-10T23:51:35.857Z,88.36
2019-03-10T23:52:35.845Z,88.30
2019-03-10T23:53:35.853Z,87.74
2019-03-10T23:54:35.820Z,87.84
2019-03-10T23:55:35.810Z,88.15
2019-03-10T23:56:35.796Z,88.57
2019-03-10T23:57:35.783Z,86.49
2019-03-10T23:58:35.791Z,87.53
2019-03-10T23:59:35.763Z,88.20
